Capitol Logistics 2219


KIAD
Washington Dulles International Airport
Dulles, Virginia, US
KSDF
Louisville International Airport-Standiford Field
Louisville, Kentucky, US

Activity Log

Date Flight Route Aircraft Duration
09/30/2020 CPX2219 RNLDI4 OTTTO Q68 HVQ UNCKL MAUDD6 B763 1h 41m
01/28/2020 CPX2219 RNLDI4 OTTTO Q68 HVQ UNCKL MAUDD6 B763 1h 34m
01/18/2020 CPX2219 RNLDI4 OTTTO Q68 HVQ UNCKL MAUDD6 B763 1h 44m
11/18/2019 CPX2219 RNLDI4 OTTTO Q68 HVQ UNCKL MAUDD6 B763 1h 31m
03/25/2018 CPX906 RNLDI4 OTTTO Q68 HVQ UNCKL MAUDD4 B744 1h 12m

Route Details

Aircraft Information
Primary: Boeing 767-300BDSF
Backup: Boeing 757-200SF
Date Restrictions
Between:Nov 16, 2019
Dec 31, 2019
Route Data
Distance: 392nm
Sched. Duration: 1h 13m
Avg. Duration: 1h 32m (+19m)
Times Flown: 5
Recm'd Route: RNLDI4 OTTTO Q68 HVQ UNCKL MAUDD6
Planned Altitude: 32,000ft
Origin Wx: KIAD 290352Z 35006KT 10SM SCT014 OVC060 17/15 A2996 RMK AO2 SLP142 T01720150
Dest. Wx: KSDF 290356Z 03005KT 3SM RA BR OVC007 13/12 A2984 RMK AO2 SLP104 P0005 T01280117
Notes: SEASONAL FLIGHT | UPS SURGE OPS CONTRACT

Financial History
Total Freight: 527,434lbs
Average Load: 105,487lbs/flt
Fuel Used: 85,580lbs
Avg. Fuel Used: 17,116lbs/flt
Fuel Expense: $109,131
Avg. Fuel Expense: $21,826
Avg. Fuel Cost: $1.27/lbs
Total Gross Income: $839,054
Pilot Pay: $745
Total Expenses: $95,531
Total Revenue: $632,890
Average Revenue: $167,810.90